Norfolk, Virginia
Traffic Map
Current Weather Conditions
Norfolk, Virginia
Overcast
Overcast
35°
Feels Like: 26°
Wind Chill: 26° Ceiling: 6000
Heat Index: 35° Visibility: 10mi
Dew Point: 29° Wind: 13mph
Humidity: 78% Direction: 320° (NW)
Pressure: 29.67in Gusts: 20mph
Raw Report DataKORF 130300Z 32011G17KT 10SM FEW014 OVC060 02/M02 A2967 RMK AO2 SNE0253 P0000 T00171017
Traffic Incident Summary
Active as of:
Severity:
Category:
InformationThere was an issue retrieving the traffic information for this location. Please try a different location or try again shortly.
Advertisements